createdAt,value
2023-02-21T00:02:03.809Z,61.35
2023-02-21T00:04:49.420Z,64.22
2023-02-21T00:07:35.166Z,58.59
2023-02-21T00:10:22.698Z,61.16
2023-02-21T00:13:08.577Z,61.91
2023-02-21T00:15:54.449Z,61.24
2023-02-21T00:18:40.693Z,61.79
2023-02-21T00:21:26.548Z,62.19
2023-02-21T00:24:12.186Z,58.22
2023-02-21T00:26:59.489Z,58.62
2023-02-21T00:29:45.550Z,58.81
2023-02-21T00:32:31.657Z,60.07
2023-02-21T00:35:17.721Z,58.26
2023-02-21T00:38:03.684Z,57.42
2023-02-21T00:40:49.796Z,57.48
2023-02-21T00:43:36.849Z,56.39
2023-02-21T00:46:22.822Z,58.05
2023-02-21T00:49:08.667Z,58.14
2023-02-21T00:51:54.625Z,57.98
2023-02-21T00:54:40.616Z,56.87
2023-02-21T00:57:26.231Z,55.64
2023-02-21T01:00:13.443Z,55.45
2023-02-21T01:03:00.109Z,56.56
2023-02-21T01:05:45.859Z,57.80
2023-02-21T01:08:31.828Z,55.76
2023-02-21T01:11:17.864Z,55.05
2023-02-21T01:14:03.610Z,55.80
2023-02-21T01:16:51.425Z,54.85
2023-02-21T01:19:37.810Z,55.40
2023-02-21T01:22:23.936Z,54.55
2023-02-21T01:25:09.897Z,52.84
2023-02-21T01:27:56.209Z,53.58
2023-02-21T01:30:42.301Z,53.17
2023-02-21T01:33:29.645Z,55.31
2023-02-21T01:36:15.391Z,55.04
2023-02-21T01:39:01.445Z,54.28
2023-02-21T01:41:47.379Z,53.97
2023-02-21T01:44:50.395Z,54.99
2023-02-21T01:47:36.294Z,54.53
2023-02-21T01:50:31.915Z,55.42
2023-02-21T01:53:18.403Z,55.82
2023-02-21T01:56:04.355Z,53.83
2023-02-21T01:58:51.118Z,55.53
2023-02-21T02:01:44.528Z,55.64
2023-02-21T02:04:30.890Z,56.25
2023-02-21T02:07:18.325Z,56.61
2023-02-21T02:10:04.134Z,56.63
2023-02-21T02:12:43.731Z,55.77
2023-02-21T02:15:43.186Z,54.74
2023-02-21T02:18:23.639Z,56.92
2023-02-21T02:21:09.899Z,57.70
2023-02-21T02:24:01.478Z,58.07
2023-02-21T02:27:08.724Z,58.01
2023-02-21T02:29:50.662Z,61.36
2023-02-21T02:32:34.149Z,59.73
2023-02-21T02:35:06.773Z,60.70
2023-02-21T02:37:40.428Z,61.46
2023-02-21T02:40:14.854Z,62.29
2023-02-21T02:42:50.336Z,59.59
2023-02-21T02:45:22.815Z,59.87
2023-02-21T02:47:53.541Z,58.93
2023-02-21T02:50:24.342Z,58.43
2023-02-21T02:52:53.940Z,60.42
2023-02-21T02:55:27.842Z,59.36
2023-02-21T02:57:56.295Z,59.37
2023-02-21T03:00:24.868Z,60.34
2023-02-21T03:03:09.618Z,60.89
2023-02-21T03:05:51.007Z,59.33
2023-02-21T03:08:22.794Z,58.18
2023-02-21T03:10:57.029Z,60.09
2023-02-21T03:13:34.459Z,60.62
2023-02-21T03:16:10.044Z,64.23
2023-02-21T03:18:42.360Z,65.88
2023-02-21T03:21:18.943Z,65.85
2023-02-21T03:23:49.530Z,63.77
2023-02-21T03:26:17.590Z,66.65
2023-02-21T03:28:46.302Z,70.59
2023-02-21T03:31:15.976Z,77.84
2023-02-21T03:33:44.854Z,79.22
2023-02-21T03:36:15.746Z,84.40
2023-02-21T03:38:44.043Z,85.54
2023-02-21T03:41:14.125Z,80.56
2023-02-21T03:43:42.577Z,77.53
2023-02-21T03:46:10.822Z,87.67
2023-02-21T03:48:39.113Z,85.74
2023-02-21T03:51:07.485Z,88.83
2023-02-21T03:53:37.137Z,89.14
2023-02-21T03:56:05.987Z,82.69
2023-02-21T03:58:34.245Z,85.20
2023-02-21T04:01:03.624Z,85.90
2023-02-21T04:03:32.129Z,85.42
2023-02-21T04:06:00.475Z,85.38
2023-02-21T04:08:28.707Z,81.40
2023-02-21T04:10:58.302Z,87.67
2023-02-21T04:13:26.555Z,89.56
2023-02-21T04:15:54.816Z,90.49
2023-02-21T04:18:23.050Z,91.42
2023-02-21T04:20:51.438Z,91.02
2023-02-21T04:23:20.273Z,94.91
2023-02-21T04:25:49.148Z,91.58
2023-02-21T04:28:18.762Z,91.03
2023-02-21T04:30:47.223Z,86.62
2023-02-21T04:33:15.432Z,91.65
2023-02-21T04:35:43.885Z,93.01
2023-02-21T04:38:12.096Z,98.18
2023-02-21T04:40:40.312Z,96.02
2023-02-21T04:43:08.578Z,98.38
2023-02-21T04:45:38.178Z,95.92
2023-02-21T04:48:06.778Z,91.66
2023-02-21T04:50:35.009Z,92.83
2023-02-21T04:53:03.309Z,100.00
2023-02-21T04:55:31.549Z,100.00
2023-02-21T04:57:59.819Z,100.00
2023-02-21T05:00:28.074Z,100.00
2023-02-21T05:02:58.276Z,100.00
2023-02-21T05:05:26.648Z,100.00
2023-02-21T05:07:54.958Z,100.00
2023-02-21T05:10:25.452Z,100.00
2023-02-21T05:12:55.378Z,100.00
2023-02-21T05:15:23.816Z,100.00
2023-02-21T05:17:52.086Z,100.00
2023-02-21T05:20:21.937Z,100.00
2023-02-21T05:22:50.491Z,100.00
2023-02-21T05:25:21.102Z,100.00
2023-02-21T05:27:49.323Z,100.00
2023-02-21T05:30:19.901Z,100.00
2023-02-21T05:32:48.241Z,100.00
2023-02-21T05:35:17.574Z,100.00
2023-02-21T05:37:47.221Z,100.00
2023-02-21T05:40:16.992Z,100.00
2023-02-21T05:42:45.453Z,99.58
2023-02-21T05:45:13.756Z,91.91
2023-02-21T05:47:41.977Z,83.79
2023-02-21T05:50:10.297Z,82.54
2023-02-21T05:52:38.534Z,83.35
2023-02-21T05:55:08.674Z,87.77
2023-02-21T05:57:39.608Z,89.08
2023-02-21T06:00:14.556Z,86.91
2023-02-21T06:02:42.810Z,91.61
2023-02-21T06:05:11.999Z,87.19
2023-02-21T06:07:40.258Z,80.49
2023-02-21T06:10:10.139Z,78.20
2023-02-21T06:12:38.357Z,76.36
2023-02-21T06:15:07.501Z,74.53
2023-02-21T06:17:35.709Z,74.69
2023-02-21T06:20:04.063Z,76.81
2023-02-21T06:22:32.522Z,71.73
2023-02-21T06:25:00.982Z,85.80
2023-02-21T06:27:30.630Z,77.62
2023-02-21T06:29:58.899Z,74.77
2023-02-21T06:32:27.768Z,73.23
2023-02-21T06:34:56.058Z,72.30
2023-02-21T06:37:24.398Z,72.55
2023-02-21T06:39:52.619Z,72.13
2023-02-21T06:42:21.233Z,71.06
2023-02-21T06:44:51.031Z,71.72
2023-02-21T06:47:19.338Z,71.09
2023-02-21T06:49:47.584Z,69.10
2023-02-21T06:52:16.564Z,68.83
2023-02-21T06:54:46.025Z,80.32
2023-02-21T06:57:14.237Z,71.53
2023-02-21T06:59:42.472Z,69.21
2023-02-21T07:02:18.298Z,67.81
2023-02-21T07:04:46.951Z,66.41
2023-02-21T07:07:15.584Z,72.10
2023-02-21T07:09:44.082Z,72.87
2023-02-21T07:12:12.428Z,72.15
2023-02-21T07:14:40.813Z,72.78
2023-02-21T07:17:09.023Z,68.94
2023-02-21T07:19:38.619Z,69.46
2023-02-21T07:22:06.936Z,70.57
2023-02-21T07:24:36.691Z,74.29
2023-02-21T07:27:05.767Z,72.10
2023-02-21T07:29:34.037Z,65.21
2023-02-21T07:32:02.426Z,65.12
2023-02-21T07:34:30.649Z,74.11
2023-02-21T07:37:00.226Z,68.34
2023-02-21T07:39:28.459Z,77.08
2023-02-21T07:41:56.663Z,80.11
2023-02-21T07:44:25.005Z,78.28
2023-02-21T07:46:53.295Z,75.46
2023-02-21T07:49:21.537Z,74.85
2023-02-21T07:51:49.820Z,68.62
2023-02-21T07:54:19.763Z,73.63
2023-02-21T07:56:49.633Z,75.85
2023-02-21T07:59:17.939Z,76.23
2023-02-21T08:01:47.588Z,72.36
2023-02-21T08:04:20.394Z,74.55
2023-02-21T08:06:49.368Z,69.59
2023-02-21T08:09:18.928Z,68.37
2023-02-21T08:11:47.135Z,70.41
2023-02-21T08:14:15.351Z,72.95
2023-02-21T08:16:43.579Z,65.46
2023-02-21T08:19:11.951Z,71.64
2023-02-21T08:21:40.206Z,66.64
2023-02-21T08:24:08.579Z,69.76
2023-02-21T08:26:38.186Z,65.55
2023-02-21T08:29:06.447Z,61.94
2023-02-21T08:31:36.131Z,62.02
2023-02-21T08:34:05.160Z,63.46
2023-02-21T08:36:33.758Z,61.65
2023-02-21T08:39:02.021Z,61.83
2023-02-21T08:41:38.443Z,66.22
2023-02-21T08:44:07.195Z,60.95
2023-02-21T08:46:36.097Z,61.44
2023-02-21T08:49:05.299Z,61.92
2023-02-21T08:51:34.497Z,62.00
2023-02-21T08:54:03.360Z,60.83
2023-02-21T08:56:31.867Z,58.15
2023-02-21T08:59:02.099Z,57.97
2023-02-21T09:01:34.269Z,58.85
2023-02-21T09:04:02.640Z,55.47
2023-02-21T09:06:31.206Z,54.57
2023-02-21T09:08:59.665Z,54.85
2023-02-21T09:11:28.002Z,57.23
2023-02-21T09:13:56.268Z,56.68
2023-02-21T09:16:26.245Z,56.04
2023-02-21T09:18:56.888Z,56.31
2023-02-21T09:21:24.936Z,54.75
2023-02-21T09:23:54.911Z,51.18
2023-02-21T09:26:24.387Z,50.93
2023-02-21T09:28:53.164Z,50.19
2023-02-21T09:31:22.190Z,49.35
2023-02-21T09:33:51.907Z,50.23
2023-02-21T09:36:23.630Z,47.48
2023-02-21T09:38:51.932Z,47.55
2023-02-21T09:41:21.304Z,49.49
2023-02-21T09:43:52.631Z,47.20
2023-02-21T09:46:26.016Z,47.10
2023-02-21T09:48:55.647Z,47.22
2023-02-21T09:51:25.134Z,47.96
2023-02-21T09:53:56.211Z,45.07
2023-02-21T09:56:28.707Z,46.66
2023-02-21T09:58:58.881Z,45.00
2023-02-21T10:01:34.076Z,45.47
2023-02-21T10:04:15.034Z,44.28
2023-02-21T10:06:48.826Z,46.63
2023-02-21T10:09:25.447Z,45.93
2023-02-21T10:12:04.772Z,46.53
2023-02-21T10:14:42.177Z,45.82
2023-02-21T10:17:15.679Z,45.65
2023-02-21T10:19:49.989Z,45.26
2023-02-21T10:22:22.123Z,45.18
2023-02-21T10:24:51.032Z,44.29
2023-02-21T10:27:21.312Z,42.53
2023-02-21T10:29:52.369Z,41.46
2023-02-21T10:32:21.148Z,41.38
2023-02-21T10:34:50.867Z,43.62
2023-02-21T10:37:29.244Z,45.26
2023-02-21T10:40:02.149Z,43.80
2023-02-21T10:42:47.856Z,43.73
2023-02-21T10:45:17.927Z,42.70
2023-02-21T10:47:55.131Z,43.85
2023-02-21T10:50:44.414Z,43.59
2023-02-21T10:53:26.488Z,43.52
2023-02-21T10:56:19.959Z,42.01
2023-02-21T10:58:49.492Z,41.72
2023-02-21T11:01:21.346Z,42.88
2023-02-21T11:03:52.306Z,42.03
2023-02-21T11:06:28.420Z,42.83
2023-02-21T11:08:56.748Z,43.04
2023-02-21T11:11:37.265Z,43.75
2023-02-21T11:14:22.050Z,41.31
2023-02-21T11:17:14.524Z,40.01
2023-02-21T11:19:54.236Z,41.81
2023-02-21T11:22:26.594Z,43.87
2023-02-21T11:25:06.322Z,44.51
2023-02-21T11:27:36.679Z,42.03
2023-02-21T11:30:12.588Z,43.53
2023-02-21T11:32:42.002Z,40.45
2023-02-21T11:35:24.205Z,43.36
2023-02-21T11:37:56.527Z,41.80
2023-02-21T11:40:27.994Z,42.92
2023-02-21T11:43:22.478Z,43.44
2023-02-21T11:46:01.030Z,42.45
2023-02-21T11:48:32.977Z,41.26
2023-02-21T11:51:07.541Z,42.23
2023-02-21T11:53:41.216Z,41.29
2023-02-21T11:56:18.866Z,41.92
2023-02-21T11:58:56.519Z,41.45
2023-02-21T12:01:29.908Z,42.60
2023-02-21T12:04:44.038Z,42.83
2023-02-21T12:07:18.400Z,42.90
2023-02-21T12:09:54.295Z,39.88
2023-02-21T12:12:32.831Z,40.00
2023-02-21T12:15:07.221Z,40.60
2023-02-21T12:17:53.598Z,41.56
2023-02-21T12:20:27.287Z,41.03
2023-02-21T12:23:12.347Z,40.01
2023-02-21T12:25:53.548Z,38.92
2023-02-21T12:28:27.959Z,37.97
2023-02-21T12:31:09.588Z,37.94
2023-02-21T12:33:45.832Z,39.43
2023-02-21T12:36:36.917Z,38.36
2023-02-21T12:39:17.535Z,39.90
2023-02-21T12:41:51.274Z,39.96
2023-02-21T12:44:22.611Z,38.90
2023-02-21T12:46:54.940Z,39.40
2023-02-21T12:49:25.677Z,40.49
2023-02-21T12:51:59.127Z,39.23
2023-02-21T12:54:36.827Z,38.82
2023-02-21T12:57:09.462Z,38.21
2023-02-21T12:59:47.615Z,38.38
2023-02-21T13:02:22.014Z,38.77
2023-02-21T13:04:55.809Z,38.10
2023-02-21T13:07:26.388Z,37.18
2023-02-21T13:09:56.162Z,38.15
2023-02-21T13:12:28.286Z,38.12
2023-02-21T13:14:58.638Z,36.52
2023-02-21T13:17:27.801Z,37.33
2023-02-21T13:20:01.724Z,37.32
2023-02-21T13:23:25.199Z,37.42
2023-02-21T13:26:04.902Z,35.38
2023-02-21T13:28:36.532Z,35.99
2023-02-21T13:31:06.601Z,35.57
2023-02-21T13:33:39.462Z,36.06
2023-02-21T13:36:19.895Z,38.57
2023-02-21T13:38:48.615Z,38.52
2023-02-21T13:41:17.514Z,37.83
2023-02-21T13:43:51.300Z,37.95
2023-02-21T13:46:58.780Z,39.07
2023-02-21T13:49:48.327Z,35.88
2023-02-21T13:52:28.831Z,35.84
2023-02-21T13:55:26.244Z,36.35
2023-02-21T13:58:30.045Z,34.33
2023-02-21T14:01:18.934Z,36.60
2023-02-21T14:03:47.216Z,35.72
2023-02-21T14:06:36.569Z,36.23
2023-02-21T14:09:08.218Z,35.42
2023-02-21T14:11:39.503Z,36.53
2023-02-21T14:14:21.817Z,36.49
2023-02-21T14:16:54.799Z,34.82
2023-02-21T14:19:26.635Z,33.78
2023-02-21T14:22:02.842Z,36.16
2023-02-21T14:24:33.520Z,36.15
2023-02-21T14:27:05.301Z,37.94
2023-02-21T14:29:36.574Z,36.58
2023-02-21T14:32:27.725Z,37.47
2023-02-21T14:34:57.964Z,37.73
2023-02-21T14:37:29.546Z,36.47
2023-02-21T14:40:00.319Z,36.58
2023-02-21T14:42:36.824Z,37.30
2023-02-21T14:45:30.554Z,35.84
2023-02-21T14:48:10.126Z,35.95
2023-02-21T14:50:45.175Z,35.68
2023-02-21T14:53:40.019Z,35.91
2023-02-21T14:56:35.078Z,35.40
2023-02-21T14:59:32.055Z,36.02
2023-02-21T15:02:08.430Z,35.35
2023-02-21T15:04:44.053Z,34.38
2023-02-21T15:07:18.812Z,35.69
2023-02-21T15:09:47.547Z,35.36
2023-02-21T15:12:17.950Z,36.55
2023-02-21T15:14:49.961Z,37.52
2023-02-21T15:17:20.382Z,37.19
2023-02-21T15:20:02.809Z,35.85
2023-02-21T15:22:31.123Z,35.74
2023-02-21T15:25:13.058Z,34.44
2023-02-21T15:27:55.549Z,34.77
2023-02-21T15:30:25.869Z,33.96
2023-02-21T15:32:59.244Z,34.19
2023-02-21T15:35:34.329Z,34.39
2023-02-21T15:38:05.201Z,33.92
2023-02-21T15:40:33.591Z,34.66
2023-02-21T15:43:02.608Z,35.60
2023-02-21T15:45:32.643Z,35.36
2023-02-21T15:48:01.834Z,35.25
2023-02-21T15:50:35.487Z,36.46
2023-02-21T15:53:19.081Z,35.76
2023-02-21T15:55:48.838Z,36.69
2023-02-21T15:58:23.788Z,36.91
2023-02-21T16:01:07.233Z,36.09
2023-02-21T16:03:38.346Z,35.60
2023-02-21T16:06:20.998Z,35.80
2023-02-21T16:09:02.070Z,37.06
2023-02-21T16:11:45.459Z,37.67
2023-02-21T16:14:23.855Z,37.63
2023-02-21T16:16:56.198Z,38.13
2023-02-21T16:19:24.803Z,38.55
2023-02-21T16:22:12.811Z,38.36
2023-02-21T16:24:41.723Z,38.79
2023-02-21T16:27:12.881Z,38.74
2023-02-21T16:29:41.146Z,38.13
2023-02-21T16:32:17.417Z,38.05
2023-02-21T16:34:45.707Z,38.81
2023-02-21T16:37:15.894Z,39.04
2023-02-21T16:39:44.453Z,39.23
2023-02-21T16:42:12.732Z,38.94
2023-02-21T16:44:41.074Z,39.21
2023-02-21T16:47:09.429Z,39.05
2023-02-21T16:49:37.637Z,38.87
2023-02-21T16:52:06.125Z,39.37
2023-02-21T16:54:35.687Z,39.82
2023-02-21T16:57:03.954Z,39.45
2023-02-21T16:59:32.251Z,39.92
2023-02-21T17:02:01.344Z,39.50
2023-02-21T17:04:29.765Z,39.69
2023-02-21T17:06:59.611Z,40.22
2023-02-21T17:09:29.472Z,40.34
2023-02-21T17:12:00.143Z,40.73
2023-02-21T17:14:28.210Z,41.33
2023-02-21T17:16:59.128Z,41.57
2023-02-21T17:19:27.328Z,41.83
2023-02-21T17:21:58.123Z,42.04
2023-02-21T17:24:26.367Z,42.49
2023-02-21T17:26:54.968Z,43.33
2023-02-21T17:29:25.515Z,43.88
2023-02-21T17:31:54.463Z,44.07
2023-02-21T17:34:22.964Z,44.76
2023-02-21T17:36:51.770Z,45.34
2023-02-21T17:39:20.470Z,45.56
2023-02-21T17:41:49.222Z,45.77
2023-02-21T17:44:19.000Z,46.21
2023-02-21T17:46:49.472Z,46.66
2023-02-21T17:49:18.824Z,46.90
2023-02-21T17:51:49.199Z,47.07
2023-02-21T17:54:19.398Z,47.65
2023-02-21T17:56:47.743Z,48.39
2023-02-21T17:59:16.572Z,50.41
2023-02-21T18:01:44.994Z,51.35
2023-02-21T18:04:15.210Z,51.30
2023-02-21T18:06:43.687Z,52.25
2023-02-21T18:09:12.097Z,51.82
2023-02-21T18:11:40.354Z,52.46
2023-02-21T18:14:08.575Z,52.94
2023-02-21T18:16:36.838Z,53.50
2023-02-21T18:19:05.095Z,53.36
2023-02-21T18:21:34.951Z,53.82
2023-02-21T18:24:03.539Z,54.71
2023-02-21T18:26:31.765Z,55.03
2023-02-21T18:29:00.007Z,56.12
2023-02-21T18:31:28.289Z,55.97
2023-02-21T18:33:56.570Z,58.05
2023-02-21T18:36:26.529Z,59.03
2023-02-21T18:38:56.375Z,61.05
2023-02-21T18:41:24.598Z,61.22
2023-02-21T18:43:53.378Z,62.05
2023-02-21T18:46:23.835Z,62.33
2023-02-21T18:48:52.346Z,62.32
2023-02-21T18:51:21.370Z,62.24
2023-02-21T18:53:50.481Z,63.27
2023-02-21T18:56:21.147Z,66.02
2023-02-21T18:58:49.535Z,65.60
2023-02-21T19:01:19.633Z,65.39
2023-02-21T19:03:48.238Z,65.16
2023-02-21T19:06:18.070Z,76.17
2023-02-21T19:08:46.844Z,77.99
2023-02-21T19:11:15.845Z,74.17
2023-02-21T19:13:47.391Z,71.66
2023-02-21T19:16:15.816Z,71.19
2023-02-21T19:18:44.122Z,72.20
2023-02-21T19:21:12.973Z,73.01
2023-02-21T19:23:41.352Z,75.96
2023-02-21T19:26:09.607Z,76.38
2023-02-21T19:28:39.964Z,74.35
2023-02-21T19:31:10.738Z,73.56
2023-02-21T19:33:40.088Z,72.46
2023-02-21T19:36:09.891Z,74.25
2023-02-21T19:38:38.312Z,74.43
2023-02-21T19:41:07.457Z,73.95
2023-02-21T19:43:36.012Z,73.98
2023-02-21T19:46:04.483Z,74.73
2023-02-21T19:48:34.151Z,76.91
2023-02-21T19:51:02.384Z,79.67
2023-02-21T19:53:30.628Z,77.83
2023-02-21T19:55:58.837Z,79.06
2023-02-21T19:58:27.056Z,76.75
2023-02-21T20:00:55.413Z,91.79
2023-02-21T20:03:23.749Z,80.88
2023-02-21T20:05:53.753Z,89.94
2023-02-21T20:08:22.103Z,85.14
2023-02-21T20:10:50.905Z,84.94
2023-02-21T20:13:20.223Z,82.91
2023-02-21T20:15:50.726Z,82.12
2023-02-21T20:18:19.008Z,78.62
2023-02-21T20:20:49.557Z,76.67
2023-02-21T20:23:19.221Z,75.55
2023-02-21T20:25:47.805Z,74.40
2023-02-21T20:28:16.101Z,73.75
2023-02-21T20:30:44.570Z,71.90
2023-02-21T20:33:12.901Z,74.03
2023-02-21T20:35:41.228Z,75.75
2023-02-21T20:38:10.827Z,77.19
2023-02-21T20:40:40.507Z,77.46
2023-02-21T20:43:08.768Z,84.33
2023-02-21T20:45:38.481Z,79.76
2023-02-21T20:48:08.906Z,78.21
2023-02-21T20:50:37.182Z,78.22
2023-02-21T20:53:05.798Z,76.93
2023-02-21T20:55:37.297Z,73.56
2023-02-21T20:58:07.150Z,75.61
2023-02-21T21:00:37.743Z,71.52
2023-02-21T21:03:06.676Z,78.44
2023-02-21T21:05:34.877Z,79.62
2023-02-21T21:08:03.195Z,85.99
2023-02-21T21:10:31.464Z,95.39
2023-02-21T21:12:59.826Z,100.00
2023-02-21T21:15:29.937Z,100.00
2023-02-21T21:17:58.293Z,100.00
2023-02-21T21:20:27.112Z,96.79
2023-02-21T21:22:55.423Z,93.09
2023-02-21T21:25:23.720Z,96.42
2023-02-21T21:27:51.994Z,95.85
2023-02-21T21:30:23.344Z,92.48
2023-02-21T21:32:53.031Z,93.97
2023-02-21T21:35:22.099Z,92.23
2023-02-21T21:37:50.813Z,91.91
2023-02-21T21:40:19.404Z,95.99
2023-02-21T21:42:49.966Z,95.89
2023-02-21T21:45:19.596Z,94.94
2023-02-21T21:47:48.598Z,96.82
2023-02-21T21:50:19.232Z,95.99
2023-02-21T21:52:51.323Z,100.00
2023-02-21T21:55:21.993Z,100.00
2023-02-21T21:57:53.359Z,92.14
2023-02-21T22:00:23.777Z,95.89
2023-02-21T22:02:57.147Z,96.41
2023-02-21T22:05:27.661Z,100.00
2023-02-21T22:07:56.587Z,100.00
2023-02-21T22:10:26.041Z,100.00
2023-02-21T22:12:56.561Z,100.00
2023-02-21T22:15:25.453Z,100.00
2023-02-21T22:17:54.130Z,100.00
2023-02-21T22:20:28.420Z,100.00
2023-02-21T22:22:59.036Z,100.00
2023-02-21T22:25:30.161Z,100.00
2023-02-21T22:28:00.537Z,100.00
2023-02-21T22:30:28.894Z,100.00
2023-02-21T22:32:57.184Z,100.00
2023-02-21T22:35:25.611Z,100.00
2023-02-21T22:37:55.852Z,100.00
2023-02-21T22:40:28.027Z,100.00
2023-02-21T22:42:59.317Z,100.00
2023-02-21T22:45:28.963Z,100.00
2023-02-21T22:47:57.731Z,100.00
2023-02-21T22:50:27.112Z,100.00
2023-02-21T22:52:57.642Z,100.00
2023-02-21T22:55:29.732Z,100.00
2023-02-21T22:57:59.719Z,100.00
2023-02-21T23:00:33.272Z,100.00
2023-02-21T23:03:02.621Z,100.00
2023-02-21T23:05:31.428Z,100.00
2023-02-21T23:07:59.709Z,100.00
2023-02-21T23:10:29.651Z,100.00
2023-02-21T23:13:00.009Z,98.80
2023-02-21T23:15:28.883Z,93.68
2023-02-21T23:17:57.175Z,93.67
2023-02-21T23:20:29.223Z,100.00
2023-02-21T23:22:58.947Z,100.00
2023-02-21T23:25:35.077Z,100.00
2023-02-21T23:28:06.878Z,100.00
2023-02-21T23:30:42.112Z,100.00
2023-02-21T23:33:14.480Z,100.00
2023-02-21T23:35:43.320Z,100.00
2023-02-21T23:38:15.556Z,100.00
2023-02-21T23:40:46.776Z,100.00
2023-02-21T23:43:16.862Z,100.00
2023-02-21T23:45:48.217Z,100.00
2023-02-21T23:48:16.545Z,100.00
2023-02-21T23:50:46.520Z,100.00
2023-02-21T23:53:16.546Z,100.00
2023-02-21T23:55:47.150Z,100.00
2023-02-21T23:58:17.159Z,100.00
